Deer Park, Wisconsin
Current Conditions -  °F | °C
As of 4:35 AM on Thursday 27 Nov 2014 (Local Time) from KRNH Reporting Station
Clear Clear  
Wind Chill: -15°   Ceiling: Unl
Heat Index:   Visibility: 10mi
Dew Point: -5°   Wind: 9mph
Humidity: 79%   Direction: 340°NNW
Pressure: 30.44"   Gusts: NA
Location:  45.19°N, 92.39°W
Report Text: KRNH 271035Z AUTO 34008KT 10SM CLR M18/M20 A3044 RMK AO2 T11771205
Loading
Personal Weather Stations






























Interactive Weather Map New forecast layout! Learn more

10-Day Weather Forecast

Advertisements
Track Severe Weather on mobile